Latest Coastal Weather Observations for Port Kembla Harbour

IDN60701

Issued at 10:25 pm EST Saturday 19 April 2014 (issued every 10 minutes, with the page automatically refreshed every 10 minutes)

About coastal observations | Map of coastal stations | Coastal observations for NSW | Marine services | Other Formats
Station Details ID: 068253 Name: PORT KEMBLA NTC AWS Lat: -34.47 Lon: 150.91 Height: 0.0 m
Data from the previous 72 hours. | See also: Recent months for locations in New South Wales
Date/Time
EST
Temp

°C
Wind Pressure Rain
since 9am
mm
Weather Cloud Vis
km
Sea
Height
m
Swell
Dir
 
Speed
knots
Gust
knots
hPa Trend Height
m
Period
s
Dir
19/10:00pm 16.2 W 5 7 1017.7 - - - - - - - - -
19/09:30pm 16.0 W 6 7 1017.6 - - - - - - - - -
19/09:00pm 16.2 WSW 6 8 1017.5 - - - - - - - - -
19/08:30pm 15.7 WSW 6 8 1017.3 - - - - - - - - -
19/08:00pm 16.3 SW 6 9 1017.1 - - - - - - - - -
19/07:30pm 16.6 WSW 6 8 1016.9 - - - - - - - - -
19/07:00pm 17.4 WSW 5 7 1016.5 - - - - - - - - -
19/06:30pm 18.1 SSW 5 9 1016.1 - - - - - - - - -
19/06:00pm 18.3 S 5 9 1015.7 - - - - - - - - -
19/05:30pm 18.2 S 4 10 1015.5 - - - - - - - - -
19/05:00pm 18.5 SSE 5 10 1015.4 - - - - - - - - -
19/04:30pm 18.6 SSE 7 13 1015.1 - - - - - - - - -
19/04:00pm 18.6 S 7 14 1015.0 - - - - - - - - -
19/03:30pm 18.8 S 7 14 1014.9 - - - - - - - - -
19/03:00pm 19.0 S 7 16 1014.8 - - - - - - - - -
19/02:30pm 18.8 S 8 14 1014.6 - - - - - - - - -
19/02:00pm 19.0 S 8 14 1014.6 - - - - - - - - -
19/01:30pm 18.7 S 8 16 1014.7 - - - - - - - - -
19/01:00pm 18.7 S 8 14 1014.9 - - - - - - - - -
19/12:30pm 18.8 S 7 15 1015.2 - - - - - - - - -
19/12:00pm 18.7 S 8 15 1015.6 - - - - - - - - -
19/11:30am 19.1 SSW 6 13 1015.8 - - - - - - - - -
19/11:00am 18.8 S 7 13 1016.2 - - - - - - - - -
19/10:30am 18.4 S 5 12 1016.4 - - - - - - - - -
19/10:00am 17.9 SSW 8 14 1016.4 - - - - - - - - -
19/09:30am 17.4 SSW 9 15 1016.5 - - - - - - - - -
19/09:00am 17.5 SSW 9 15 1016.7 - - - - - - - - -
19/08:30am 16.9 SW 9 13 1016.7 - - - - - - - - -
19/08:00am 16.9 SW 7 12 1016.5 - - - - - - - - -
19/07:30am 16.7 WSW 7 9 1016.2 - - - - - - - - -
19/07:00am 16.4 WSW 7 9 1015.8 - - - - - - - - -
19/06:30am 16.2 WSW 6 8 1015.4 - - - - - - - - -
19/06:00am 16.5 WSW 4 6 1015.2 - - - - - - - - -
19/05:30am 16.6 WSW 5 7 1015.0 - - - - - - - - -
19/05:00am 16.9 WSW 5 10 1014.8 - - - - - - - - -
19/04:30am 17.2 WSW 7 10 1014.7 - - - - - - - - -
19/04:00am 17.2 WSW 6 9 1014.3 - - - - - - - - -
19/03:30am 17.5 WSW 7 10 1014.2 - - - - - - - - -
19/03:00am 17.9 WSW 8 12 1014.2 - - - - - - - - -
19/02:30am 18.2 WSW 9 13 1014.1 - - - - - - - - -
19/02:00am 18.3 SW 9 11 1014.2 - - - - - - - - -
19/01:30am 18.6 WSW 8 11 1014.1 - - - - - - - - -
19/01:00am 19.1 SW 9 14 1014.1 - - - - - - - - -
19/12:30am 19.6 SW 6 13 1013.9 - - - - - - - - -
19/12:00am 19.6 SW 5 9 1013.7 - - - - - - - - -
 
Date/Time
EST
Temp

°C
Wind Pressure Rain
since 9am
mm
Weather Cloud Vis
km
Sea
Height
m
Swell
Dir
 
Speed
knots
Gust
knots
hPa Trend Height
m
Period
s
Dir
18/11:30pm 19.8 WSW 6 9 1013.1 - - - - - - - - -
18/11:00pm 20.0 W 9 13 1013.0 - - - - - - - - -
18/10:30pm 20.1 W 9 11 1012.9 - - - - - - - - -
18/10:00pm 20.1 W 6 8 1012.9 - - - - - - - - -
18/09:30pm 20.6 W 12 17 1012.9 - - - - - - - - -
18/09:00pm 20.6 W 12 16 1012.5 - - - - - - - - -
18/08:30pm 21.1 W 11 15 1012.6 - - - - - - - - -
18/08:00pm 21.1 W 15 18 1012.4 - - - - - - - - -
18/07:30pm 21.3 W 12 16 1012.4 - - - - - - - - -
18/07:00pm 20.9 W 8 11 1012.5 - - - - - - - - -
18/06:30pm 21.5 W 9 12 1012.5 - - - - - - - - -
18/06:00pm 21.9 W 7 10 1012.3 - - - - - - - - -
18/05:30pm 22.5 W 9 13 1012.2 - - - - - - - - -
18/05:00pm 22.9 W 9 13 1011.9 - - - - - - - - -
18/04:30pm 23.3 W 12 16 1011.5 - - - - - - - - -
18/04:00pm 23.7 W 14 20 1011.3 - - - - - - - - -
18/03:30pm 23.7 W 15 20 1011.4 - - - - - - - - -
18/03:00pm 24.0 W 14 22 1011.5 - - - - - - - - -
18/02:30pm 24.2 W 17 23 1011.4 - - - - - - - - -
18/02:19pm 24.3 W 15 23 1011.6 - - - - - - - - -
18/02:00pm 23.9 S 3 8 1011.4 - - - - - - - - -
18/01:30pm 23.9 SW 8 15 1011.5 - - - - - - - - -
18/01:00pm 23.9 S 5 12 1011.7 - - - - - - - - -
18/12:30pm 22.9 SW 5 10 1012.3 - - - - - - - - -
18/12:00pm 22.9 WSW 8 16 1012.8 - - - - - - - - -
18/11:30am 22.3 WSW 10 15 1013.4 - - - - - - - - -
18/11:00am 22.1 W 10 15 1013.9 - - - - - - - - -
18/10:30am 21.6 W 12 17 1014.3 - - - - - - - - -
18/10:00am 21.3 WSW 11 19 1014.8 - - - - - - - - -
18/09:30am 20.9 W 8 12 1014.9 - - - - - - - - -
18/09:00am 20.0 W 6 8 1015.0 - - - - - - - - -
18/08:30am 19.2 W 5 8 1015.2 - - - - - - - - -
18/08:00am 18.1 W 5 7 1015.4 - - - - - - - - -
18/07:30am 16.5 WSW 3 5 1015.4 - - - - - - - - -
18/07:00am 15.7 WSW 5 6 1015.4 - - - - - - - - -
18/06:30am 15.3 W 5 7 1015.5 - - - - - - - - -
18/06:00am 15.2 WSW 4 5 1015.4 - - - - - - - - -
18/05:30am 15.2 WSW 4 6 1015.5 - - - - - - - - -
18/05:00am 15.1 WSW 4 6 1015.7 - - - - - - - - -
18/04:30am 15.6 WSW 5 6 1015.9 - - - - - - - - -
18/04:00am 15.5 WSW 5 6 1016.0 - - - - - - - - -
18/03:30am 15.7 WSW 5 6 1016.1 - - - - - - - - -
18/03:00am 15.8 WSW 4 5 1016.2 - - - - - - - - -
18/02:30am 16.7 WSW 5 6 1016.4 - - - - - - - - -
18/02:00am 16.8 W 4 6 1016.6 - - - - - - - - -
18/01:30am 17.3 W 5 6 1016.8 - - - - - - - - -
18/01:00am 17.4 W 5 7 1017.1 - - - - - - - - -
18/12:30am 17.6 WSW 5 7 1017.5 - - - - - - - - -
18/12:00am 17.5 WSW 5 6 1017.7 - - - - - - - - -
 
Date/Time
EST
Temp

°C
Wind Pressure Rain
since 9am
mm
Weather Cloud Vis
km
Sea
Height
m
Swell
Dir
 
Speed
knots
Gust
knots
hPa Trend Height
m
Period
s
Dir
17/11:30pm 17.4 WSW 6 7 1017.9 - - - - - - - - -
17/11:00pm 17.6 W 6 7 1018.2 - - - - - - - - -
17/10:30pm 17.7 WSW 6 7 1018.6 - - - - - - - - -
17/10:00pm 17.8 W 6 8 1018.9 - - - - - - - - -
17/09:30pm 17.6 WSW 6 8 1018.9 - - - - - - - - -
17/09:00pm 17.6 W 7 10 1018.8 - - - - - - - - -
17/08:30pm 17.9 W 8 11 1018.8 - - - - - - - - -
17/08:00pm 18.3 W 8 11 1018.6 - - - - - - - - -
17/07:30pm 18.4 W 7 10 1018.6 - - - - - - - - -
17/07:00pm 18.8 WSW 7 9 1018.6 - - - - - - - - -
17/06:30pm 18.9 SW 5 8 1018.4 - - - - - - - - -
17/06:00pm 19.5 SSW 6 10 1018.1 - - - - - - - - -
17/05:30pm 19.8 S 6 13 1018.0 - - - - - - - - -
17/05:00pm 19.9 S 7 15 1017.9 - - - - - - - - -
17/04:30pm 20.5 S 7 15 1017.6 - - - - - - - - -
17/04:00pm 20.6 S 8 18 1017.5 - - - - - - - - -
17/03:30pm 21.0 S 8 16 1017.4 - - - - - - - - -
17/03:00pm 21.2 S 8 15 1017.4 - - - - - - - - -
17/02:30pm 21.6 S 8 14 1017.5 - - - - - - - - -
17/02:00pm 21.7 S 8 15 1017.6 - - - - - - - - -
17/01:30pm 21.7 S 6 15 1017.7 - - - - - - - - -
17/01:00pm 21.6 S 6 15 1017.8 - - - - - - - - -
17/12:30pm 21.6 S 6 15 1018.1 - - - - - - - - -
17/12:00pm 21.5 S 7 14 1018.5 - - - - - - - - -
17/11:30am 21.1 SSW 8 15 1019.0 - - - - - - - - -
17/11:00am 20.9 SSW 8 14 1019.2 - - - - - - - - -
17/10:30am 20.3 SW 10 18 1019.3 - - - - - - - - -
17/10:00am 20.0 SW 10 18 1019.2 - - - - - - - - -
17/09:30am 19.8 SSW 9 16 1019.1 - - - - - - - - -
17/09:00am 18.7 WSW 7 11 1019.2 - - - - - - - - -
17/08:30am 17.5 WSW 6 9 1019.1 - - - - - - - - -

Other Formats:

Comma delimited format used in spreadsheet applications
http://www.bom.gov.au/fwo/IDN60701/IDN60701.95745.axf

JavaScript Object Notation format (JSON) in row-major order
http://www.bom.gov.au/fwo/IDN60701/IDN60701.95745.json